sensor_id;sensor_type;location;lat;lon;timestamp;temperature;humidity
12156;DHT22;6141;49.092;8.516;2022-08-01T00:02:05;22.70;32.80
12156;DHT22;6141;49.092;8.516;2022-08-01T00:04:34;22.70;33.30
12156;DHT22;6141;49.092;8.516;2022-08-01T00:07:03;22.90;32.90
12156;DHT22;6141;49.092;8.516;2022-08-01T00:09:31;23.10;32.80
12156;DHT22;6141;49.092;8.516;2022-08-01T00:12:00;23.20;32.30
12156;DHT22;6141;49.092;8.516;2022-08-01T00:14:30;23.20;32.30
12156;DHT22;6141;49.092;8.516;2022-08-01T00:17:03;23.30;32.90
12156;DHT22;6141;49.092;8.516;2022-08-01T00:19:33;23.40;32.50
12156;DHT22;6141;49.092;8.516;2022-08-01T00:22:02;23.30;32.40
12156;DHT22;6141;49.092;8.516;2022-08-01T00:24:30;23.20;32.30
12156;DHT22;6141;49.092;8.516;2022-08-01T00:26:59;23.10;32.20
12156;DHT22;6141;49.092;8.516;2022-08-01T00:29:29;23.10;32.20
12156;DHT22;6141;49.092;8.516;2022-08-01T00:32:19;23.10;32.20
12156;DHT22;6141;49.092;8.516;2022-08-01T00:34:48;23.20;32.70
12156;DHT22;6141;49.092;8.516;2022-08-01T00:37:17;23.20;32.30
12156;DHT22;6141;49.092;8.516;2022-08-01T00:39:47;23.20;32.60
12156;DHT22;6141;49.092;8.516;2022-08-01T00:42:24;23.10;32.60
12156;DHT22;6141;49.092;8.516;2022-08-01T00:44:54;22.90;32.60
12156;DHT22;6141;49.092;8.516;2022-08-01T00:47:26;22.70;33.30
12156;DHT22;6141;49.092;8.516;2022-08-01T00:49:55;22.60;33.80
12156;DHT22;6141;49.092;8.516;2022-08-01T00:52:23;22.70;34.20
12156;DHT22;6141;49.092;8.516;2022-08-01T00:54:52;22.80;33.60
12156;DHT22;6141;49.092;8.516;2022-08-01T00:57:21;23.00;33.30
12156;DHT22;6141;49.092;8.516;2022-08-01T01:00:12;23.20;33.60
12156;DHT22;6141;49.092;8.516;2022-08-01T01:02:41;23.30;32.40
12156;DHT22;6141;49.092;8.516;2022-08-01T01:05:10;23.30;32.40
12156;DHT22;6141;49.092;8.516;2022-08-01T01:07:46;23.10;32.90
12156;DHT22;6141;49.092;8.516;2022-08-01T01:10:19;23.00;32.80
12156;DHT22;6141;49.092;8.516;2022-08-01T01:12:51;22.90;33.90
12156;DHT22;6141;49.092;8.516;2022-08-01T01:15:28;22.80;34.20
12156;DHT22;6141;49.092;8.516;2022-08-01T01:18:02;22.80;34.60
12156;DHT22;6141;49.092;8.516;2022-08-01T01:20:36;22.70;34.50
12156;DHT22;6141;49.092;8.516;2022-08-01T01:23:24;22.70;35.00
12156;DHT22;6141;49.092;8.516;2022-08-01T01:26:17;22.60;34.90
12156;DHT22;6141;49.092;8.516;2022-08-01T01:29:06;22.50;35.10
12156;DHT22;6141;49.092;8.516;2022-08-01T01:31:42;22.50;35.40
12156;DHT22;6141;49.092;8.516;2022-08-01T01:34:13;22.50;35.50
12156;DHT22;6141;49.092;8.516;2022-08-01T01:36:43;22.40;35.50
12156;DHT22;6141;49.092;8.516;2022-08-01T01:39:12;22.30;35.70
12156;DHT22;6141;49.092;8.516;2022-08-01T01:41:43;22.10;36.20
12156;DHT22;6141;49.092;8.516;2022-08-01T01:44:15;22.00;36.80
12156;DHT22;6141;49.092;8.516;2022-08-01T01:46:54;21.90;37.60
12156;DHT22;6141;49.092;8.516;2022-08-01T01:49:32;21.90;37.60
12156;DHT22;6141;49.092;8.516;2022-08-01T01:52:03;22.00;37.70
12156;DHT22;6141;49.092;8.516;2022-08-01T01:54:37;22.20;37.50
12156;DHT22;6141;49.092;8.516;2022-08-01T01:57:06;22.30;36.80
12156;DHT22;6141;49.092;8.516;2022-08-01T01:59:38;22.40;36.70
12156;DHT22;6141;49.092;8.516;2022-08-01T02:02:09;22.40;36.90
12156;DHT22;6141;49.092;8.516;2022-08-01T02:04:43;22.30;36.70
12156;DHT22;6141;49.092;8.516;2022-08-01T02:07:16;22.30;37.10
12156;DHT22;6141;49.092;8.516;2022-08-01T02:09:48;22.10;37.10
12156;DHT22;6141;49.092;8.516;2022-08-01T02:12:19;21.90;37.60
12156;DHT22;6141;49.092;8.516;2022-08-01T02:14:54;21.80;37.50
12156;DHT22;6141;49.092;8.516;2022-08-01T02:17:26;21.70;37.70
12156;DHT22;6141;49.092;8.516;2022-08-01T02:19:59;21.70;38.30
12156;DHT22;6141;49.092;8.516;2022-08-01T02:22:36;21.70;38.10
12156;DHT22;6141;49.092;8.516;2022-08-01T02:25:10;21.70;38.60
12156;DHT22;6141;49.092;8.516;2022-08-01T02:27:54;21.60;38.60
12156;DHT22;6141;49.092;8.516;2022-08-01T02:31:16;21.50;38.50
12156;DHT22;6141;49.092;8.516;2022-08-01T02:35:05;21.40;38.60
12156;DHT22;6141;49.092;8.516;2022-08-01T02:37:56;21.50;38.90
12156;DHT22;6141;49.092;8.516;2022-08-01T02:41:29;21.50;38.90
12156;DHT22;6141;49.092;8.516;2022-08-01T02:47:50;21.70;38.80
12156;DHT22;6141;49.092;8.516;2022-08-01T02:50:20;21.50;39.40
12156;DHT22;6141;49.092;8.516;2022-08-01T02:52:51;21.40;39.80
12156;DHT22;6141;49.092;8.516;2022-08-01T02:55:21;21.20;40.00
12156;DHT22;6141;49.092;8.516;2022-08-01T02:57:52;21.10;40.60
12156;DHT22;6141;49.092;8.516;2022-08-01T03:00:28;21.00;40.80
12156;DHT22;6141;49.092;8.516;2022-08-01T03:03:00;21.00;40.90
12156;DHT22;6141;49.092;8.516;2022-08-01T03:05:30;21.00;41.00
12156;DHT22;6141;49.092;8.516;2022-08-01T03:08:00;20.90;40.80
12156;DHT22;6141;49.092;8.516;2022-08-01T03:10:39;20.70;41.10
12156;DHT22;6141;49.092;8.516;2022-08-01T03:13:09;20.70;41.50
12156;DHT22;6141;49.092;8.516;2022-08-01T03:15:39;20.90;41.80
12156;DHT22;6141;49.092;8.516;2022-08-01T03:18:12;21.00;41.50
12156;DHT22;6141;49.092;8.516;2022-08-01T03:20:42;21.00;41.00
12156;DHT22;6141;49.092;8.516;2022-08-01T03:23:12;21.10;40.90
12156;DHT22;6141;49.092;8.516;2022-08-01T03:25:41;21.10;40.60
12156;DHT22;6141;49.092;8.516;2022-08-01T03:28:13;21.00;41.00
12156;DHT22;6141;49.092;8.516;2022-08-01T03:30:44;21.00;41.40
12156;DHT22;6141;49.092;8.516;2022-08-01T03:33:14;20.90;41.20
12156;DHT22;6141;49.092;8.516;2022-08-01T03:35:46;20.80;40.80
12156;DHT22;6141;49.092;8.516;2022-08-01T03:38:19;20.80;40.70
12156;DHT22;6141;49.092;8.516;2022-08-01T03:40:53;20.80;41.00
12156;DHT22;6141;49.092;8.516;2022-08-01T03:43:26;20.80;41.00
12156;DHT22;6141;49.092;8.516;2022-08-01T03:46:01;21.00;42.00
12156;DHT22;6141;49.092;8.516;2022-08-01T03:48:36;21.00;41.90
12156;DHT22;6141;49.092;8.516;2022-08-01T03:51:08;21.00;42.10
12156;DHT22;6141;49.092;8.516;2022-08-01T03:53:37;21.10;41.70
12156;DHT22;6141;49.092;8.516;2022-08-01T03:56:09;21.20;41.40
12156;DHT22;6141;49.092;8.516;2022-08-01T03:58:39;21.40;41.10
12156;DHT22;6141;49.092;8.516;2022-08-01T04:01:10;21.40;40.80
12156;DHT22;6141;49.092;8.516;2022-08-01T04:03:43;21.30;40.10
12156;DHT22;6141;49.092;8.516;2022-08-01T04:06:12;21.10;40.60
12156;DHT22;6141;49.092;8.516;2022-08-01T04:08:41;21.10;40.70
12156;DHT22;6141;49.092;8.516;2022-08-01T04:11:10;21.10;40.60
12156;DHT22;6141;49.092;8.516;2022-08-01T04:13:39;21.30;41.20
12156;DHT22;6141;49.092;8.516;2022-08-01T04:16:13;21.20;41.30
12156;DHT22;6141;49.092;8.516;2022-08-01T04:18:43;21.20;41.70
12156;DHT22;6141;49.092;8.516;2022-08-01T04:21:11;21.10;41.50
12156;DHT22;6141;49.092;8.516;2022-08-01T04:23:41;21.20;41.80
12156;DHT22;6141;49.092;8.516;2022-08-01T04:26:18;20.90;41.30
12156;DHT22;6141;49.092;8.516;2022-08-01T04:28:48;21.10;41.40
12156;DHT22;6141;49.092;8.516;2022-08-01T04:31:19;21.20;41.60
12156;DHT22;6141;49.092;8.516;2022-08-01T04:33:53;21.20;41.20
12156;DHT22;6141;49.092;8.516;2022-08-01T04:36:25;21.30;41.30
12156;DHT22;6141;49.092;8.516;2022-08-01T04:39:00;21.50;40.90
12156;DHT22;6141;49.092;8.516;2022-08-01T04:41:30;21.70;40.60
12156;DHT22;6141;49.092;8.516;2022-08-01T04:43:59;21.70;40.60
12156;DHT22;6141;49.092;8.516;2022-08-01T04:46:32;21.80;40.80
12156;DHT22;6141;49.092;8.516;2022-08-01T04:49:05;21.70;41.00
12156;DHT22;6141;49.092;8.516;2022-08-01T04:51:36;21.70;41.70
12156;DHT22;6141;49.092;8.516;2022-08-01T04:54:06;21.60;42.30
12156;DHT22;6141;49.092;8.516;2022-08-01T04:56:34;21.80;42.70
12156;DHT22;6141;49.092;8.516;2022-08-01T04:59:03;21.70;42.60
12156;DHT22;6141;49.092;8.516;2022-08-01T05:01:49;21.80;42.90
12156;DHT22;6141;49.092;8.516;2022-08-01T05:04:20;21.80;42.90
12156;DHT22;6141;49.092;8.516;2022-08-01T05:06:48;21.90;43.00
12156;DHT22;6141;49.092;8.516;2022-08-01T05:09:17;22.20;42.40
12156;DHT22;6141;49.092;8.516;2022-08-01T05:11:45;22.20;42.00
12156;DHT22;6141;49.092;8.516;2022-08-01T05:14:14;22.40;41.70
12156;DHT22;6141;49.092;8.516;2022-08-01T05:16:42;22.50;41.30
12156;DHT22;6141;49.092;8.516;2022-08-01T05:19:11;22.80;41.30
12156;DHT22;6141;49.092;8.516;2022-08-01T05:21:41;22.70;41.20
12156;DHT22;6141;49.092;8.516;2022-08-01T05:24:09;22.70;41.20
12156;DHT22;6141;49.092;8.516;2022-08-01T05:26:39;22.70;41.00
12156;DHT22;6141;49.092;8.516;2022-08-01T05:29:11;22.60;41.50
12156;DHT22;6141;49.092;8.516;2022-08-01T05:31:40;22.60;42.20
12156;DHT22;6141;49.092;8.516;2022-08-01T05:34:08;22.50;42.20
12156;DHT22;6141;49.092;8.516;2022-08-01T05:36:42;22.70;41.90
12156;DHT22;6141;49.092;8.516;2022-08-01T05:39:13;22.80;41.60
12156;DHT22;6141;49.092;8.516;2022-08-01T05:41:44;22.80;41.70
12156;DHT22;6141;49.092;8.516;2022-08-01T05:44:12;22.80;41.50
12156;DHT22;6141;49.092;8.516;2022-08-01T05:46:41;23.00;41.40
12156;DHT22;6141;49.092;8.516;2022-08-01T05:49:09;23.00;41.10
12156;DHT22;6141;49.092;8.516;2022-08-01T05:51:38;23.20;40.80
12156;DHT22;6141;49.092;8.516;2022-08-01T05:54:08;23.30;40.70
12156;DHT22;6141;49.092;8.516;2022-08-01T05:56:37;23.20;41.30
12156;DHT22;6141;49.092;8.516;2022-08-01T05:59:05;23.40;40.60
12156;DHT22;6141;49.092;8.516;2022-08-01T06:01:34;23.40;40.40
12156;DHT22;6141;49.092;8.516;2022-08-01T06:04:03;23.40;40.00
12156;DHT22;6141;49.092;8.516;2022-08-01T06:06:31;23.40;41.00
12156;DHT22;6141;49.092;8.516;2022-08-01T06:08:59;23.40;40.40
12156;DHT22;6141;49.092;8.516;2022-08-01T06:11:29;23.30;41.00
12156;DHT22;6141;49.092;8.516;2022-08-01T06:13:58;23.50;40.70
12156;DHT22;6141;49.092;8.516;2022-08-01T06:16:31;23.60;40.30
12156;DHT22;6141;49.092;8.516;2022-08-01T06:19:00;23.70;39.40
12156;DHT22;6141;49.092;8.516;2022-08-01T06:21:28;23.80;39.50
12156;DHT22;6141;49.092;8.516;2022-08-01T06:24:03;23.90;39.60
12156;DHT22;6141;49.092;8.516;2022-08-01T06:26:33;23.90;39.60
12156;DHT22;6141;49.092;8.516;2022-08-01T06:29:02;24.00;39.70
12156;DHT22;6141;49.092;8.516;2022-08-01T06:31:30;23.90;39.60
12156;DHT22;6141;49.092;8.516;2022-08-01T06:34:00;23.90;39.60
12156;DHT22;6141;49.092;8.516;2022-08-01T06:36:28;23.90;39.70
12156;DHT22;6141;49.092;8.516;2022-08-01T06:39:01;24.10;39.80
12156;DHT22;6141;49.092;8.516;2022-08-01T06:41:34;24.30;40.00
12156;DHT22;6141;49.092;8.516;2022-08-01T06:44:02;24.20;39.90
12156;DHT22;6141;49.092;8.516;2022-08-01T06:46:32;24.10;39.80
12156;DHT22;6141;49.092;8.516;2022-08-01T06:49:01;24.30;40.00
12156;DHT22;6141;49.092;8.516;2022-08-01T06:51:30;24.30;39.30
12156;DHT22;6141;49.092;8.516;2022-08-01T06:53:58;24.40;39.10
12156;DHT22;6141;49.092;8.516;2022-08-01T06:56:27;24.60;38.00
12156;DHT22;6141;49.092;8.516;2022-08-01T06:58:57;24.90;38.30
12156;DHT22;6141;49.092;8.516;2022-08-01T07:01:27;25.10;37.80
12156;DHT22;6141;49.092;8.516;2022-08-01T07:04:01;25.10;36.70
12156;DHT22;6141;49.092;8.516;2022-08-01T07:06:29;25.20;36.60
12156;DHT22;6141;49.092;8.516;2022-08-01T07:08:57;25.30;37.10
12156;DHT22;6141;49.092;8.516;2022-08-01T07:11:35;25.40;36.70
12156;DHT22;6141;49.092;8.516;2022-08-01T07:14:05;25.60;36.40
12156;DHT22;6141;49.092;8.516;2022-08-01T07:16:34;25.80;35.90
12156;DHT22;6141;49.092;8.516;2022-08-01T07:19:02;25.90;34.80
12156;DHT22;6141;49.092;8.516;2022-08-01T07:21:30;25.90;34.80
12156;DHT22;6141;49.092;8.516;2022-08-01T07:24:08;26.10;34.00
12156;DHT22;6141;49.092;8.516;2022-08-01T07:26:40;26.10;35.00
12156;DHT22;6141;49.092;8.516;2022-08-01T07:29:22;26.20;32.80
12156;DHT22;6141;49.092;8.516;2022-08-01T07:31:51;26.30;32.80
12156;DHT22;6141;49.092;8.516;2022-08-01T07:34:20;26.50;32.80
12156;DHT22;6141;49.092;8.516;2022-08-01T07:36:49;26.60;33.30
12156;DHT22;6141;49.092;8.516;2022-08-01T07:39:17;26.70;31.30
12156;DHT22;6141;49.092;8.516;2022-08-01T07:41:45;26.60;31.20
12156;DHT22;6141;49.092;8.516;2022-08-01T07:44:35;26.50;31.70
12156;DHT22;6141;49.092;8.516;2022-08-01T07:47:04;26.40;32.40
12156;DHT22;6141;49.092;8.516;2022-08-01T07:49:33;26.30;31.30
12156;DHT22;6141;49.092;8.516;2022-08-01T07:52:06;26.20;31.80
12156;DHT22;6141;49.092;8.516;2022-08-01T07:54:35;26.10;31.60
12156;DHT22;6141;49.092;8.516;2022-08-01T07:57:03;26.20;32.10
12156;DHT22;6141;49.092;8.516;2022-08-01T07:59:32;26.20;31.20
12156;DHT22;6141;49.092;8.516;2022-08-01T08:02:02;26.00;32.00
12156;DHT22;6141;49.092;8.516;2022-08-01T08:04:31;25.80;33.40
12156;DHT22;6141;49.092;8.516;2022-08-01T08:07:00;25.90;34.20
12156;DHT22;6141;49.092;8.516;2022-08-01T08:09:28;26.00;34.00
12156;DHT22;6141;49.092;8.516;2022-08-01T08:12:04;25.90;33.60
12156;DHT22;6141;49.092;8.516;2022-08-01T08:14:33;25.90;34.10
12156;DHT22;6141;49.092;8.516;2022-08-01T08:17:03;25.90;33.70
12156;DHT22;6141;49.092;8.516;2022-08-01T08:19:31;25.90;34.50
12156;DHT22;6141;49.092;8.516;2022-08-01T08:22:05;26.10;35.40
12156;DHT22;6141;49.092;8.516;2022-08-01T08:24:34;26.40;33.10
12156;DHT22;6141;49.092;8.516;2022-08-01T08:27:13;26.40;33.30
12156;DHT22;6141;49.092;8.516;2022-08-01T08:29:45;26.80;32.70
12156;DHT22;6141;49.092;8.516;2022-08-01T08:32:15;26.80;32.30
12156;DHT22;6141;49.092;8.516;2022-08-01T08:34:44;27.10;33.10
12156;DHT22;6141;49.092;8.516;2022-08-01T08:37:13;27.40;32.10
12156;DHT22;6141;49.092;8.516;2022-08-01T08:39:41;27.50;30.70
12156;DHT22;6141;49.092;8.516;2022-08-01T08:42:11;27.60;29.60
12156;DHT22;6141;49.092;8.516;2022-08-01T08:44:41;27.70;29.70
12156;DHT22;6141;49.092;8.516;2022-08-01T08:47:15;27.80;30.00
12156;DHT22;6141;49.092;8.516;2022-08-01T08:49:53;28.00;29.90
12156;DHT22;6141;49.092;8.516;2022-08-01T08:52:22;28.10;29.10
12156;DHT22;6141;49.092;8.516;2022-08-01T08:54:51;28.10;29.20
12156;DHT22;6141;49.092;8.516;2022-08-01T08:57:20;28.20;30.00
12156;DHT22;6141;49.092;8.516;2022-08-01T08:59:50;28.40;30.00
12156;DHT22;6141;49.092;8.516;2022-08-01T09:02:22;28.50;29.30
12156;DHT22;6141;49.092;8.516;2022-08-01T09:04:51;28.40;29.50
12156;DHT22;6141;49.092;8.516;2022-08-01T09:07:20;28.10;29.40
12156;DHT22;6141;49.092;8.516;2022-08-01T09:09:50;27.70;29.70
12156;DHT22;6141;49.092;8.516;2022-08-01T09:12:19;27.70;30.00
12156;DHT22;6141;49.092;8.516;2022-08-01T09:14:48;27.80;29.70
12156;DHT22;6141;49.092;8.516;2022-08-01T09:17:22;27.90;29.80
12156;DHT22;6141;49.092;8.516;2022-08-01T09:19:52;28.00;29.90
12156;DHT22;6141;49.092;8.516;2022-08-01T09:22:24;28.10;29.60
12156;DHT22;6141;49.092;8.516;2022-08-01T09:25:01;28.10;29.30
12156;DHT22;6141;49.092;8.516;2022-08-01T09:27:31;28.10;29.20
12156;DHT22;6141;49.092;8.516;2022-08-01T09:30:09;27.90;29.70
12156;DHT22;6141;49.092;8.516;2022-08-01T09:32:55;27.90;29.80
12156;DHT22;6141;49.092;8.516;2022-08-01T09:35:26;27.70;30.10
12156;DHT22;6141;49.092;8.516;2022-08-01T09:38:14;27.70;29.70
12156;DHT22;6141;49.092;8.516;2022-08-01T09:40:48;27.80;29.70
12156;DHT22;6141;49.092;8.516;2022-08-01T09:43:18;27.90;29.80
12156;DHT22;6141;49.092;8.516;2022-08-01T09:45:47;28.20;31.10
12156;DHT22;6141;49.092;8.516;2022-08-01T09:48:21;28.20;29.40
12156;DHT22;6141;49.092;8.516;2022-08-01T09:50:56;28.20;28.70
12156;DHT22;6141;49.092;8.516;2022-08-01T09:53:41;28.20;28.70
12156;DHT22;6141;49.092;8.516;2022-08-01T09:56:20;28.20;29.40
12156;DHT22;6141;49.092;8.516;2022-08-01T09:58:50;28.10;30.00
12156;DHT22;6141;49.092;8.516;2022-08-01T10:01:27;28.00;29.90
12156;DHT22;6141;49.092;8.516;2022-08-01T10:04:10;28.00;29.90
12156;DHT22;6141;49.092;8.516;2022-08-01T10:06:40;28.10;29.50
12156;DHT22;6141;49.092;8.516;2022-08-01T10:09:31;28.00;29.90
12156;DHT22;6141;49.092;8.516;2022-08-01T10:12:07;28.20;29.10
12156;DHT22;6141;49.092;8.516;2022-08-01T10:14:45;28.10;28.60
12156;DHT22;6141;49.092;8.516;2022-08-01T10:17:18;28.00;29.30
12156;DHT22;6141;49.092;8.516;2022-08-01T10:19:51;27.90;29.80
12156;DHT22;6141;49.092;8.516;2022-08-01T10:22:24;27.90;29.20
12156;DHT22;6141;49.092;8.516;2022-08-01T10:24:56;27.80;29.70
12156;DHT22;6141;49.092;8.516;2022-08-01T10:27:27;27.80;29.70
12156;DHT22;6141;49.092;8.516;2022-08-01T10:30:05;27.80;29.80
12156;DHT22;6141;49.092;8.516;2022-08-01T10:32:49;28.00;29.90
12156;DHT22;6141;49.092;8.516;2022-08-01T10:35:22;28.20;30.30
12156;DHT22;6141;49.092;8.516;2022-08-01T10:38:14;28.60;28.90
12156;DHT22;6141;49.092;8.516;2022-08-01T10:40:44;29.00;28.40
12156;DHT22;6141;49.092;8.516;2022-08-01T10:43:16;29.20;26.30
12156;DHT22;6141;49.092;8.516;2022-08-01T10:45:49;29.10;26.40
12156;DHT22;6141;49.092;8.516;2022-08-01T10:48:22;29.00;26.90
12156;DHT22;6141;49.092;8.516;2022-08-01T10:50:59;28.90;27.20
12156;DHT22;6141;49.092;8.516;2022-08-01T10:53:28;28.90;27.40
12156;DHT22;6141;49.092;8.516;2022-08-01T10:56:09;28.90;27.10
12156;DHT22;6141;49.092;8.516;2022-08-01T10:58:43;28.80;27.20
12156;DHT22;6141;49.092;8.516;2022-08-01T11:01:22;28.80;28.30
12156;DHT22;6141;49.092;8.516;2022-08-01T11:04:07;28.90;27.90
12156;DHT22;6141;49.092;8.516;2022-08-01T11:07:06;28.90;27.70
12156;DHT22;6141;49.092;8.516;2022-08-01T11:09:43;29.00;28.40
12156;DHT22;6141;49.092;8.516;2022-08-01T11:12:18;29.00;27.70
12156;DHT22;6141;49.092;8.516;2022-08-01T11:15:21;28.90;27.30
12156;DHT22;6141;49.092;8.516;2022-08-01T11:18:00;29.00;27.60
12156;DHT22;6141;49.092;8.516;2022-08-01T11:20:33;29.00;26.90
12156;DHT22;6141;49.092;8.516;2022-08-01T11:23:19;28.90;27.20
12156;DHT22;6141;49.092;8.516;2022-08-01T11:26:16;28.70;27.10
12156;DHT22;6141;49.092;8.516;2022-08-01T11:29:17;28.70;28.30
12156;DHT22;6141;49.092;8.516;2022-08-01T11:31:49;28.60;28.50
12156;DHT22;6141;49.092;8.516;2022-08-01T11:34:19;28.50;27.70
12156;DHT22;6141;49.092;8.516;2022-08-01T11:37:25;28.50;27.70
12156;DHT22;6141;49.092;8.516;2022-08-01T11:40:17;28.60;27.50
12156;DHT22;6141;49.092;8.516;2022-08-01T11:42:49;28.50;27.70
12156;DHT22;6141;49.092;8.516;2022-08-01T11:45:18;28.50;27.40
12156;DHT22;6141;49.092;8.516;2022-08-01T11:47:48;28.40;27.40
12156;DHT22;6141;49.092;8.516;2022-08-01T11:50:35;28.40;27.60
12156;DHT22;6141;49.092;8.516;2022-08-01T11:53:06;28.40;27.90
12156;DHT22;6141;49.092;8.516;2022-08-01T11:55:48;28.50;26.90
12156;DHT22;6141;49.092;8.516;2022-08-01T11:58:22;28.60;26.60
12156;DHT22;6141;49.092;8.516;2022-08-01T12:00:58;28.60;27.10
12156;DHT22;6141;49.092;8.516;2022-08-01T12:03:29;28.70;27.10
12156;DHT22;6141;49.092;8.516;2022-08-01T12:06:02;28.60;27.20
12156;DHT22;6141;49.092;8.516;2022-08-01T12:08:33;28.70;27.50
12156;DHT22;6141;49.092;8.516;2022-08-01T12:11:05;28.80;29.90
12156;DHT22;6141;49.092;8.516;2022-08-01T12:13:51;29.10;27.00
12156;DHT22;6141;49.092;8.516;2022-08-01T12:16:26;29.30;26.20
12156;DHT22;6141;49.092;8.516;2022-08-01T12:18:59;29.40;25.40
12156;DHT22;6141;49.092;8.516;2022-08-01T12:21:42;29.20;25.30
12156;DHT22;6141;49.092;8.516;2022-08-01T12:24:22;29.00;26.60
12156;DHT22;6141;49.092;8.516;2022-08-01T12:27:04;29.20;27.20
12156;DHT22;6141;49.092;8.516;2022-08-01T12:29:35;29.20;26.60
12156;DHT22;6141;49.092;8.516;2022-08-01T12:32:22;29.40;25.40
12156;DHT22;6141;49.092;8.516;2022-08-01T12:35:04;29.40;25.50
12156;DHT22;6141;49.092;8.516;2022-08-01T12:37:36;29.30;25.30
12156;DHT22;6141;49.092;8.516;2022-08-01T12:40:13;29.50;24.90
12156;DHT22;6141;49.092;8.516;2022-08-01T12:42:50;29.60;25.10
12156;DHT22;6141;49.092;8.516;2022-08-01T12:45:21;29.60;24.80
12156;DHT22;6141;49.092;8.516;2022-08-01T12:47:52;29.80;24.60
12156;DHT22;6141;49.092;8.516;2022-08-01T12:50:28;30.10;23.90
12156;DHT22;6141;49.092;8.516;2022-08-01T12:53:01;30.00;24.30
12156;DHT22;6141;49.092;8.516;2022-08-01T12:55:33;30.00;25.40
12156;DHT22;6141;49.092;8.516;2022-08-01T12:58:31;30.20;23.90
12156;DHT22;6141;49.092;8.516;2022-08-01T13:01:05;30.10;24.00
12156;DHT22;6141;49.092;8.516;2022-08-01T13:06:23;30.00;23.20
12156;DHT22;6141;49.092;8.516;2022-08-01T13:14:03;29.90;24.50
12156;DHT22;6141;49.092;8.516;2022-08-01T13:17:40;30.10;24.50
12156;DHT22;6141;49.092;8.516;2022-08-01T13:20:28;30.20;23.80
12156;DHT22;6141;49.092;8.516;2022-08-01T13:23:25;30.20;24.20
12156;DHT22;6141;49.092;8.516;2022-08-01T13:27:08;30.20;23.20
12156;DHT22;6141;49.092;8.516;2022-08-01T13:38:40;30.40;22.90
12156;DHT22;6141;49.092;8.516;2022-08-01T13:43:00;30.20;22.50
12156;DHT22;6141;49.092;8.516;2022-08-01T13:48:45;30.10;22.30
12156;DHT22;6141;49.092;8.516;2022-08-01T14:05:59;29.90;23.10
12156;DHT22;6141;49.092;8.516;2022-08-01T14:08:31;30.20;23.80
12156;DHT22;6141;49.092;8.516;2022-08-01T14:11:03;30.30;21.70
12156;DHT22;6141;49.092;8.516;2022-08-01T14:13:36;30.10;22.70
12156;DHT22;6141;49.092;8.516;2022-08-01T14:22:17;30.10;22.40
12156;DHT22;6141;49.092;8.516;2022-08-01T14:27:40;30.00;22.60
12156;DHT22;6141;49.092;8.516;2022-08-01T14:30:27;29.90;23.30
12156;DHT22;6141;49.092;8.516;2022-08-01T14:34:25;29.70;24.30
12156;DHT22;6141;49.092;8.516;2022-08-01T14:41:37;29.50;23.50
12156;DHT22;6141;49.092;8.516;2022-08-01T14:44:17;29.80;23.50
12156;DHT22;6141;49.092;8.516;2022-08-01T14:47:32;29.80;22.50
12156;DHT22;6141;49.092;8.516;2022-08-01T15:21:59;29.60;24.10
12156;DHT22;6141;49.092;8.516;2022-08-01T15:30:49;29.60;24.30
12156;DHT22;6141;49.092;8.516;2022-08-01T15:34:51;29.80;24.00
12156;DHT22;6141;49.092;8.516;2022-08-01T15:38:03;29.70;23.70
12156;DHT22;6141;49.092;8.516;2022-08-01T15:41:37;29.70;23.80
12156;DHT22;6141;49.092;8.516;2022-08-01T15:45:37;29.60;24.00
12156;DHT22;6141;49.092;8.516;2022-08-01T15:48:49;29.50;23.80
12156;DHT22;6141;49.092;8.516;2022-08-01T16:03:39;29.50;24.50
12156;DHT22;6141;49.092;8.516;2022-08-01T16:14:30;29.50;24.30
12156;DHT22;6141;49.092;8.516;2022-08-01T16:17:55;29.70;24.10
12156;DHT22;6141;49.092;8.516;2022-08-01T16:20:38;29.50;23.80
12156;DHT22;6141;49.092;8.516;2022-08-01T16:27:59;29.10;24.80
12156;DHT22;6141;49.092;8.516;2022-08-01T16:31:27;29.00;25.10
12156;DHT22;6141;49.092;8.516;2022-08-01T16:35:25;28.70;25.00
12156;DHT22;6141;49.092;8.516;2022-08-01T16:47:14;29.00;24.60
12156;DHT22;6141;49.092;8.516;2022-08-01T17:11:44;29.00;24.10
12156;DHT22;6141;49.092;8.516;2022-08-01T17:15:14;29.00;24.20
12156;DHT22;6141;49.092;8.516;2022-08-01T17:18:43;28.80;24.70
12156;DHT22;6141;49.092;8.516;2022-08-01T17:21:42;28.70;24.70
12156;DHT22;6141;49.092;8.516;2022-08-01T17:25:16;28.80;24.50
12156;DHT22;6141;49.092;8.516;2022-08-01T17:28:33;28.70;24.40
12156;DHT22;6141;49.092;8.516;2022-08-01T18:34:38;28.20;24.70
12156;DHT22;6141;49.092;8.516;2022-08-01T18:38:10;28.10;25.20
12156;DHT22;6141;49.092;8.516;2022-08-01T19:01:34;28.40;24.60
12156;DHT22;6141;49.092;8.516;2022-08-01T19:05:53;28.20;25.90
12156;DHT22;6141;49.092;8.516;2022-08-01T19:11:01;28.20;25.50
12156;DHT22;6141;49.092;8.516;2022-08-01T19:19:42;28.70;25.00
12156;DHT22;6141;49.092;8.516;2022-08-01T21:52:37;25.30;34.90
12156;DHT22;6141;49.092;8.516;2022-08-01T21:55:43;25.20;34.30
12156;DHT22;6141;49.092;8.516;2022-08-01T21:58:47;25.00;35.70
12156;DHT22;6141;49.092;8.516;2022-08-01T22:01:54;25.00;36.60
12156;DHT22;6141;49.092;8.516;2022-08-01T22:05:38;24.90;36.40
12156;DHT22;6141;49.092;8.516;2022-08-01T22:24:03;24.80;35.90
12156;DHT22;6141;49.092;8.516;2022-08-01T22:38:52;24.50;37.10
12156;DHT22;6141;49.092;8.516;2022-08-01T22:40:56;24.60;37.30
12156;DHT22;6141;49.092;8.516;2022-08-01T22:44:41;24.80;36.90
12156;DHT22;6141;49.092;8.516;2022-08-01T22:52:53;23.80;37.30
12156;DHT22;6141;49.092;8.516;2022-08-01T23:18:41;23.10;38.80
12156;DHT22;6141;49.092;8.516;2022-08-01T23:22:41;23.00;39.50
12156;DHT22;6141;49.092;8.516;2022-08-01T23:25:37;23.00;40.40
12156;DHT22;6141;49.092;8.516;2022-08-01T23:28:48;22.70;40.90
12156;DHT22;6141;49.092;8.516;2022-08-01T23:32:58;22.60;41.10
12156;DHT22;6141;49.092;8.516;2022-08-01T23:41:01;22.40;41.10
12156;DHT22;6141;49.092;8.516;2022-08-01T23:53:11;22.20;41.40
